KCHO/CHO METAR and TAF weather

Enter ICAO airport designator
Station Type Date Time Source
KCHO METAR 2018/07/19 06:53 UTC NOAA

KCHO 190653Z AUTO 26003KT 10SM CLR 19/14 A3006 RMK AO2 SLP172 T01890144


Station Type Date Time Source
KCHO Decoded METAR 2018/07/19 06:53 UTC NOAA

CHARLOTTESVILLE-ALBEMARLE, VA, United States (KCHO) 38-08N 078-27W 192M
Jul 19, 2018 - 02:53 AM EDT / 2018.07.19 0653 UTC
Wind: from the W (260 degrees) at 3 MPH (3 KT):0
Visibility: 10 mile(s):0
Sky conditions: clear
Temperature: 66.0 F (18.9 C)
Dew Point: 57.9 F (14.4 C)
Relative Humidity: 75%
Pressure (altimeter): 30.06 in. Hg (1017 hPa)
ob: KCHO 190653Z AUTO 26003KT 10SM CLR 19/14 A3006 RMK AO2 SLP172 T01890144
cycle: 7

Station Type Date Time Source
KCHO TAF 2018/07/19 06:39 UTC NOAA

TAF KCHO 190538Z 1906/2006 VRB03KT P6SM SKC
FM191500 10004KT P6SM FEW050
FM191900 15005KT P6SM FEW060 FEW250


Example: see airport list